Search for airport 
image banner adimage banner adimage banner ad
image banner ad

CN25 - The Westin Bonaventure Hotel

Located in Los Angeles, United States

ICAO - CN25, IATA -

Data provided by Airmate  

General information

Coordinates: N34°3'10" W118°15'21"
Elevation is 679 feet MSL.
Magnetic variation is 14° East
View others Airports in California

Operational data

Special qualification required
Current time UTC:
Current local time:
METAR: KHHR 211353Z 28004KT 7SM OVC010 17/14 A2998 RMK AO2 SLP150 T01720139
View NOTAMs / SUP AIP / TFR affecting this airport [VIEW]
Communications frequencies: [VIEW]

Runways:

Airport contact information

Address: Los Angeles United States

Satellite view of CN25